Time;durP1;ratioP1;P1;durP2;ratioP2;P2;SDS_P1;SDS_P2;PMS_P1;PMS_P2;Temp;Humidity;BMP_temperature;BMP_pressure;BME280_temperature;BME280_humidity;BME280_pressure;Samples;Min_cycle;Max_cycle;Signal;HPM_P1;HPM_P2
2023/03/25 00:00:23;;;;;;;19.63;3.47;;;9.80;99.90;;;;;;5070293;28;20400;-78
2023/03/25 00:02:51;;;;;;;22.55;2.83;;;9.90;99.90;;;;;;5045202;28;20049;-79
2023/03/25 00:05:19;;;;;;;23.83;3.60;;;9.80;99.90;;;;;;5041872;28;20101;-78
2023/03/25 00:07:47;;;;;;;20.08;2.70;;;9.80;99.90;;;;;;5052269;28;20409;-80
2023/03/25 00:10:14;;;;;;;20.75;3.15;;;9.80;99.90;;;;;;5064219;28;20059;-79
2023/03/25 00:12:41;;;;;;;17.40;2.95;;;9.90;99.90;;;;;;5060988;28;20040;-78
2023/03/25 00:15:09;;;;;;;17.40;2.90;;;9.80;99.90;;;;;;5056947;28;20052;-79
2023/03/25 00:17:37;;;;;;;23.23;3.08;;;9.80;99.90;;;;;;5044176;28;20036;-78
2023/03/25 00:20:07;;;;;;;22.42;3.75;;;9.90;99.90;;;;;;5038806;28;20052;-77
2023/03/25 00:22:39;;;;;;;16.73;2.90;;;9.80;99.90;;;;;;5059991;28;20113;-77
2023/03/25 00:25:06;;;;;;;16.10;2.50;;;9.80;99.90;;;;;;5056189;28;20408;-76
2023/03/25 00:27:32;;;;;;;20.40;2.53;;;9.80;99.90;;;;;;5052947;28;20518;-78
2023/03/25 00:29:58;;;;;;;19.48;2.67;;;9.80;99.90;;;;;;5067580;28;20115;-78
2023/03/25 00:32:23;;;;;;;23.75;2.83;;;9.80;99.90;;;;;;5072293;28;20048;-78
2023/03/25 00:34:50;;;;;;;25.23;2.72;;;9.80;99.90;;;;;;5062011;28;20040;-79
2023/03/25 00:37:16;;;;;;;18.08;2.92;;;9.70;99.90;;;;;;5074802;28;20048;-78
2023/03/25 00:39:43;;;;;;;18.67;3.25;;;9.70;99.90;;;;;;5059383;28;20056;-79
2023/03/25 00:42:12;;;;;;;17.73;2.67;;;9.70;99.90;;;;;;5040779;28;20048;-78
2023/03/25 00:44:39;;;;;;;21.67;3.22;;;9.70;99.90;;;;;;5061555;28;20914;-79
2023/03/25 00:47:05;;;;;;;22.23;3.60;;;9.70;99.90;;;;;;5072905;28;20127;-80
2023/03/25 00:49:31;;;;;;;26.98;3.58;;;9.70;99.90;;;;;;5061694;28;20182;-76
2023/03/25 00:51:56;;;;;;;15.55;3.95;;;9.70;99.90;;;;;;5039136;28;20097;-77
2023/03/25 00:54:23;;;;;;;20.55;4.15;;;9.60;99.90;;;;;;5065158;28;20661;-79
2023/03/25 00:56:49;;;;;;;21.50;2.90;;;9.60;99.90;;;;;;5041088;28;20059;-78
2023/03/25 00:59:15;;;;;;;29.17;4.47;;;9.60;99.90;;;;;;5044564;28;20058;-79
2023/03/25 01:01:42;;;;;;;19.88;3.05;;;9.60;99.90;;;;;;5066017;28;20028;-78
2023/03/25 01:04:15;;;;;;;22.63;3.83;;;9.60;99.90;;;;;;5055411;28;20040;-77
2023/03/25 01:06:42;;;;;;;20.48;3.10;;;9.50;99.90;;;;;;5040998;28;20043;-78
2023/03/25 01:09:12;;;;;;;28.15;3.85;;;9.50;99.90;;;;;;5041932;28;20124;-79
2023/03/25 01:11:39;;;;;;;24.05;3.80;;;9.40;99.90;;;;;;5053714;28;20039;-77
2023/03/25 01:14:10;;;;;;;28.25;4.18;;;9.40;99.90;;;;;;5059753;28;20051;-78
2023/03/25 01:16:36;;;;;;;21.43;2.80;;;9.40;99.90;;;;;;5077112;28;20051;-78
2023/03/25 01:19:02;;;;;;;21.50;3.28;;;9.40;99.90;;;;;;5055784;28;20044;-77
2023/03/25 01:21:27;;;;;;;23.65;3.55;;;9.40;99.90;;;;;;5056035;28;20040;-77
2023/03/25 01:23:53;;;;;;;26.10;5.10;;;9.40;99.90;;;;;;5056224;28;20412;-78
2023/03/25 01:26:19;;;;;;;22.13;3.75;;;9.40;99.90;;;;;;5067848;28;20807;-77
2023/03/25 01:28:45;;;;;;;24.70;3.63;;;9.40;99.90;;;;;;5058042;28;20052;-77
2023/03/25 01:31:13;;;;;;;23.27;3.33;;;9.30;99.90;;;;;;5060500;28;20032;-77
2023/03/25 01:33:39;;;;;;;26.98;4.65;;;9.30;99.90;;;;;;5055504;28;20036;-77
2023/03/25 01:36:08;;;;;;;27.15;4.07;;;9.30;99.90;;;;;;5069419;28;20047;-78
2023/03/25 01:38:35;;;;;;;30.17;4.90;;;9.30;99.90;;;;;;5065926;28;20127;-76
2023/03/25 01:41:02;;;;;;;25.13;3.42;;;9.30;99.90;;;;;;5056028;28;20047;-77
2023/03/25 01:43:28;;;;;;;26.08;4.57;;;9.30;99.90;;;;;;5062258;28;20101;-77
2023/03/25 01:45:54;;;;;;;25.20;3.53;;;9.30;99.90;;;;;;5081117;28;20637;-77
2023/03/25 01:48:34;;;;;;;26.40;3.60;;;9.30;99.90;;;;;;5036775;28;20637;-77
2023/03/25 01:51:17;;;;;;;30.92;4.70;;;9.20;99.90;;;;;;5064486;28;20070;-77
2023/03/25 01:53:43;;;;;;;26.48;3.65;;;9.20;99.90;;;;;;5036156;28;20109;-78
2023/03/25 01:56:12;;;;;;;29.60;5.20;;;9.20;99.90;;;;;;5038584;28;20041;-78
2023/03/25 01:58:38;;;;;;;26.10;3.78;;;9.20;99.90;;;;;;5066325;28;20463;-79
2023/03/25 02:01:05;;;;;;;34.25;4.80;;;9.20;99.90;;;;;;5056991;28;20040;-77
2023/03/25 02:03:35;;;;;;;29.65;3.55;;;9.10;99.90;;;;;;5067183;28;20435;-78
2023/03/25 02:06:11;;;;;;;28.15;3.75;;;9.10;99.90;;;;;;5056786;28;20464;-77
2023/03/25 02:08:38;;;;;;;32.08;4.03;;;9.50;99.90;;;;;;5062651;28;20040;-78
2023/03/25 02:11:05;;;;;;;30.50;3.90;;;9.10;99.90;;;;;;5059663;28;20040;-77
2023/03/25 02:13:33;;;;;;;25.60;4.45;;;9.10;99.90;;;;;;5062269;28;20051;-77
2023/03/25 02:16:05;;;;;;;31.17;4.97;;;9.10;99.90;;;;;;5061661;28;20060;-78
2023/03/25 02:18:44;;;;;;;29.80;4.43;;;9.10;99.90;;;;;;5061593;28;20043;-78
2023/03/25 02:21:30;;;;;;;25.38;4.03;;;9.10;99.90;;;;;;5053947;28;20687;-77
2023/03/25 02:24:21;;;;;;;38.25;5.53;;;9.10;99.90;;;;;;5016185;28;20064;-77
2023/03/25 02:27:13;;;;;;;36.00;5.13;;;9.10;99.90;;;;;;5056441;28;20204;-76
2023/03/25 02:30:00;;;;;;;32.05;5.45;;;9.10;99.90;;;;;;5059620;28;20040;-77
2023/03/25 02:32:37;;;;;;;28.27;4.07;;;9.10;99.90;;;;;;5057758;28;20064;-78
2023/03/25 02:35:33;;;;;;;26.90;4.50;;;9.10;99.90;;;;;;5061461;28;20600;-78
2023/03/25 02:38:14;;;;;;;33.00;4.13;;;9.10;99.90;;;;;;5058544;28;20174;-78
2023/03/25 02:41:21;;;;;;;32.85;4.80;;;9.10;99.90;;;;;;5042159;28;20049;-78
2023/03/25 02:43:53;;;;;;;30.23;4.38;;;9.10;99.90;;;;;;4969916;28;20133;-78
2023/03/25 02:46:20;;;;;;;29.42;5.20;;;9.10;99.90;;;;;;5028521;28;20401;-78
2023/03/25 02:49:09;;;;;;;27.13;4.00;;;9.10;99.90;;;;;;5070670;28;20056;-77
2023/03/25 02:51:57;;;;;;;27.67;4.60;;;9.10;99.90;;;;;;5059426;28;20523;-78
2023/03/25 02:54:25;;;;;;;27.60;4.43;;;9.10;99.90;;;;;;5038740;28;20136;-76
2023/03/25 02:56:56;;;;;;;25.40;3.78;;;9.10;99.90;;;;;;5058726;28;20089;-76
2023/03/25 02:59:32;;;;;;;20.02;4.38;;;9.10;99.90;;;;;;5052409;28;20060;-77
2023/03/25 03:02:02;;;;;;;28.88;4.68;;;9.10;99.90;;;;;;5054204;28;20044;-76
2023/03/25 03:04:28;;;;;;;32.22;4.72;;;9.10;99.90;;;;;;5048603;28;20055;-76
2023/03/25 03:06:55;;;;;;;24.67;3.83;;;9.10;99.90;;;;;;5049341;28;20052;-78
2023/03/25 03:09:31;;;;;;;28.52;4.05;;;9.10;99.90;;;;;;5054098;28;20052;-78
2023/03/25 03:12:08;;;;;;;22.92;3.63;;;9.10;99.90;;;;;;5060907;28;20067;-78
2023/03/25 03:14:53;;;;;;;31.15;4.63;;;9.10;99.90;;;;;;5036464;28;20047;-78
2023/03/25 03:17:28;;;;;;;17.65;2.92;;;9.10;99.90;;;;;;5074841;28;20530;-78
2023/03/25 03:20:34;;;;;;;29.65;4.07;;;9.10;99.90;;;;;;5075416;28;20059;-77
2023/03/25 03:23:12;;;;;;;31.63;3.92;;;9.10;99.90;;;;;;5051627;28;20126;-78
2023/03/25 03:25:52;;;;;;;39.30;4.53;;;8.80;99.90;;;;;;5044229;28;20098;-77
2023/03/25 03:28:31;;;;;;;32.88;4.00;;;9.30;99.90;;;;;;5039927;28;20039;-78
2023/03/25 03:31:16;;;;;;;25.63;3.53;;;9.10;99.90;;;;;;5049828;28;20041;-77
2023/03/25 03:33:56;;;;;;;35.83;4.50;;;9.10;99.90;;;;;;5059218;28;20037;-77
2023/03/25 03:36:31;;;;;;;29.70;4.40;;;9.10;99.90;;;;;;5041388;28;20080;-77
2023/03/25 03:39:22;;;;;;;37.78;4.75;;;9.10;99.90;;;;;;5054497;28;20067;-75
2023/03/25 03:41:54;;;;;;;36.78;4.32;;;9.10;99.90;;;;;;5060580;28;20040;-77
2023/03/25 03:44:24;;;;;;;23.85;3.53;;;9.10;99.90;;;;;;5054803;28;20051;-77
2023/03/25 03:46:57;;;;;;;26.63;4.07;;;9.10;99.90;;;;;;5063266;28;20037;-77
2023/03/25 03:49:47;;;;;;;27.58;3.92;;;9.10;99.90;;;;;;5061106;28;20472;-78
2023/03/25 03:52:21;;;;;;;33.42;4.78;;;9.10;99.90;;;;;;5038769;28;20051;-76
2023/03/25 03:55:01;;;;;;;30.98;4.38;;;9.10;99.90;;;;;;5073339;28;20540;-76
2023/03/25 03:57:36;;;;;;;28.23;5.00;;;9.10;99.90;;;;;;5059702;28;20145;-77
2023/03/25 04:00:10;;;;;;;25.60;4.93;;;9.10;99.90;;;;;;5064955;28;20135;-76
2023/03/25 04:02:47;;;;;;;28.75;3.58;;;9.10;99.90;;;;;;5044060;28;20457;-78
2023/03/25 04:05:16;;;;;;;25.67;4.00;;;9.10;99.90;;;;;;5055557;28;20049;-77
2023/03/25 04:08:22;;;;;;;26.98;4.82;;;9.00;99.90;;;;;;5053227;28;20501;-78
2023/03/25 04:10:57;;;;;;;27.27;3.75;;;9.10;99.90;;;;;;5021087;28;20040;-76
2023/03/25 04:13:27;;;;;;;35.85;4.75;;;9.00;99.90;;;;;;5057974;28;20059;-77
2023/03/25 04:15:53;;;;;;;27.00;4.03;;;9.40;99.90;;;;;;5060713;28;20064;-77
2023/03/25 04:18:22;;;;;;;28.33;4.20;;;9.00;99.90;;;;;;5064050;28;20087;-78
2023/03/25 04:20:50;;;;;;;35.50;4.90;;;9.00;99.90;;;;;;5069764;28;20590;-77
2023/03/25 04:23:16;;;;;;;28.90;4.22;;;9.00;99.90;;;;;;5042330;28;20722;-77
2023/03/25 04:25:46;;;;;;;32.58;4.95;;;9.00;99.90;;;;;;5060936;28;20040;-78
2023/03/25 04:28:12;;;;;;;31.02;4.25;;;9.00;99.90;;;;;;5056865;28;20814;-78
2023/03/25 04:30:39;;;;;;;27.80;4.22;;;9.00;99.90;;;;;;5075729;28;20032;-77
2023/03/25 04:33:06;;;;;;;28.35;3.92;;;9.00;99.90;;;;;;5058596;28;20048;-77
2023/03/25 04:35:32;;;;;;;34.55;4.65;;;9.00;99.90;;;;;;5067185;28;20051;-76
2023/03/25 04:37:58;;;;;;;30.63;4.28;;;9.00;99.90;;;;;;5056160;28;20123;-78
2023/03/25 04:40:24;;;;;;;23.83;4.05;;;9.10;99.90;;;;;;5042131;28;20143;-77
2023/03/25 04:42:55;;;;;;;33.15;4.63;;;9.00;99.90;;;;;;5045912;28;20044;-77
2023/03/25 04:45:21;;;;;;;37.65;4.80;;;9.00;99.90;;;;;;5050983;28;20072;-77
2023/03/25 04:47:48;;;;;;;28.33;4.18;;;9.10;99.90;;;;;;5049080;28;20390;-77
2023/03/25 04:50:25;;;;;;;31.85;4.65;;;9.00;99.90;;;;;;5023604;28;20059;-77
2023/03/25 04:52:52;;;;;;;28.52;4.20;;;9.00;99.90;;;;;;5040673;28;20396;-76
2023/03/25 04:55:19;;;;;;;23.27;3.42;;;9.00;99.90;;;;;;5042657;28;20471;-76
2023/03/25 04:57:49;;;;;;;32.45;4.20;;;9.00;99.90;;;;;;5043186;28;20104;-77
2023/03/25 05:00:21;;;;;;;29.27;4.25;;;9.00;99.90;;;;;;5047275;28;20044;-76
2023/03/25 05:02:47;;;;;;;;;;;9.00;99.90;;;;;;5041962;28;20595;-76
2023/03/25 05:05:18;;;;;;;25.38;3.95;;;9.00;99.90;;;;;;5031383;28;20484;-77
2023/03/25 05:07:50;;;;;;;22.83;4.07;;;9.00;99.90;;;;;;5028644;28;20047;-74
2023/03/25 05:10:18;;;;;;;30.08;4.15;;;9.20;99.90;;;;;;5045937;28;20774;-77
2023/03/25 05:12:44;;;;;;;27.70;4.47;;;9.00;99.90;;;;;;5043060;28;20044;-76
2023/03/25 05:15:11;;;;;;;38.15;4.70;;;9.00;99.90;;;;;;5042936;28;20045;-78
2023/03/25 05:17:37;;;;;;;24.05;4.00;;;9.00;99.90;;;;;;5047149;28;20064;-78
2023/03/25 05:20:07;;;;;;;24.63;4.10;;;9.10;99.90;;;;;;5049388;28;20096;-76
2023/03/25 05:22:33;;;;;;;31.90;3.95;;;9.00;99.90;;;;;;5037921;28;20052;-77
2023/03/25 05:25:01;;;;;;;31.60;3.65;;;9.00;99.90;;;;;;5029261;28;20419;-77
2023/03/25 05:27:29;;;;;;;27.38;4.90;;;9.00;99.90;;;;;;5050257;28;20047;-77
2023/03/25 05:29:57;;;;;;;26.00;4.38;;;9.00;99.90;;;;;;5031691;28;20048;-77
2023/03/25 05:32:24;;;;;;;30.33;4.70;;;9.00;99.90;;;;;;5048830;28;20041;-77
2023/03/25 05:34:52;;;;;;;30.75;4.35;;;9.00;99.90;;;;;;5027623;28;20075;-74
2023/03/25 05:37:18;;;;;;;34.38;5.07;;;9.00;99.90;;;;;;5045475;28;20064;-76
2023/03/25 05:39:44;;;;;;;28.27;4.97;;;9.00;99.90;;;;;;5048622;28;20131;-76
2023/03/25 05:42:11;;;;;;;36.42;5.97;;;9.00;99.90;;;;;;5035987;28;20167;-76
2023/03/25 05:44:37;;;;;;;23.77;4.53;;;9.00;99.90;;;;;;5040920;28;20398;-77
2023/03/25 05:47:03;;;;;;;34.20;6.03;;;9.00;99.90;;;;;;5047887;28;20083;-77
2023/03/25 05:49:29;;;;;;;36.30;5.60;;;9.00;99.90;;;;;;5048949;28;20106;-76
2023/03/25 05:51:55;;;;;;;31.00;4.03;;;9.00;99.90;;;;;;5034028;28;20041;-76
2023/03/25 05:54:23;;;;;;;34.80;4.97;;;9.00;99.90;;;;;;5031070;28;20796;-76
2023/03/25 05:56:52;;;;;;;27.00;5.45;;;9.00;99.90;;;;;;5036805;28;20745;-77
2023/03/25 05:59:19;;;;;;;30.27;6.25;;;9.00;99.90;;;;;;5045606;28;20045;-77
2023/03/25 06:01:45;;;;;;;30.48;5.53;;;9.00;99.90;;;;;;5045324;28;20036;-78
2023/03/25 06:04:12;;;;;;;27.02;4.72;;;8.90;99.90;;;;;;5041240;28;20037;-77
2023/03/25 06:06:40;;;;;;;37.08;5.30;;;8.90;99.90;;;;;;5041454;28;20036;-77
2023/03/25 06:09:06;;;;;;;28.45;4.95;;;8.90;99.90;;;;;;5042263;28;20525;-77
2023/03/25 06:11:36;;;;;;;34.13;4.47;;;8.90;99.90;;;;;;5038522;28;20056;-77
2023/03/25 06:14:04;;;;;;;37.87;4.50;;;9.00;99.90;;;;;;5041249;28;20061;-78
2023/03/25 06:16:31;;;;;;;25.02;3.92;;;9.00;99.90;;;;;;5042768;28;20099;-77
2023/03/25 06:19:00;;;;;;;38.70;4.75;;;9.00;99.90;;;;;;5025192;28;20090;-77
2023/03/25 06:21:28;;;;;;;33.50;5.32;;;9.00;99.90;;;;;;5044848;28;20047;-76
2023/03/25 06:23:56;;;;;;;37.25;4.82;;;9.00;99.90;;;;;;5043169;28;20045;-76
2023/03/25 06:26:25;;;;;;;;;;;9.00;99.90;;;;;;5021832;28;20043;-77
2023/03/25 06:28:51;;;;;;;25.40;3.88;;;8.90;99.90;;;;;;5065522;28;19920;-76
2023/03/25 06:31:25;;;;;;;31.55;5.13;;;8.90;99.90;;;;;;5041983;28;20323;-76
2023/03/25 06:33:54;;;;;;;29.35;5.22;;;9.00;99.90;;;;;;5039118;28;20044;-77
2023/03/25 06:36:20;;;;;;;32.38;4.03;;;8.80;99.90;;;;;;5047424;28;20403;-76
2023/03/25 06:38:48;;;;;;;35.45;4.13;;;8.80;99.90;;;;;;5034169;28;20052;-77
2023/03/25 06:41:19;;;;;;;32.80;4.30;;;8.70;99.90;;;;;;5021070;28;20299;-77
2023/03/25 06:43:45;;;;;;;27.87;3.53;;;8.70;99.90;;;;;;5040539;28;20130;-77
2023/03/25 06:46:12;;;;;;;26.42;4.32;;;9.10;99.90;;;;;;5037134;28;20796;-76
2023/03/25 06:48:37;;;;;;;24.65;4.40;;;8.70;99.90;;;;;;5025936;28;20037;-76
2023/03/25 06:51:04;;;;;;;22.10;4.43;;;8.70;99.90;;;;;;5046548;28;20041;-77
2023/03/25 06:53:30;;;;;;;32.85;4.07;;;8.70;99.90;;;;;;5043115;28;20059;-76
2023/03/25 06:55:59;;;;;;;23.02;3.78;;;9.20;99.90;;;;;;5028165;28;20044;-77
2023/03/25 06:58:33;;;;;;;30.25;4.10;;;8.70;99.90;;;;;;5026913;28;20048;-77
2023/03/25 07:01:02;;;;;;;30.17;4.53;;;8.80;99.90;;;;;;5037045;28;20042;-76
2023/03/25 07:03:29;;;;;;;27.85;3.72;;;8.80;99.90;;;;;;5043579;28;20071;-77
2023/03/25 07:05:54;;;;;;;29.42;4.28;;;8.80;99.90;;;;;;5043706;28;21139;-76
2023/03/25 07:08:20;;;;;;;25.55;3.70;;;8.80;99.90;;;;;;5028959;28;20230;-76
2023/03/25 07:10:46;;;;;;;27.58;4.40;;;8.90;99.90;;;;;;5046810;28;20146;-77
2023/03/25 07:13:12;;;;;;;23.35;3.50;;;8.80;99.90;;;;;;5015567;28;20504;-77
2023/03/25 07:15:37;;;;;;;19.30;3.63;;;8.90;99.90;;;;;;5022256;28;20120;-76
2023/03/25 07:18:03;;;;;;;27.88;3.75;;;8.90;99.90;;;;;;5054353;28;20044;-76
2023/03/25 07:20:30;;;;;;;23.70;3.30;;;8.80;99.90;;;;;;5023534;28;20041;-79
2023/03/25 07:22:55;;;;;;;21.95;4.22;;;8.80;99.90;;;;;;5023684;28;20052;-78
2023/03/25 07:25:21;;;;;;;23.08;3.67;;;8.80;99.90;;;;;;5042788;28;20049;-78
2023/03/25 07:27:47;;;;;;;24.80;4.43;;;8.80;99.90;;;;;;5037630;28;20508;-76
2023/03/25 07:30:13;;;;;;;24.58;3.42;;;8.80;99.90;;;;;;5025593;28;20048;-75
2023/03/25 07:32:39;;;;;;;24.13;4.40;;;8.80;99.90;;;;;;5041120;28;20045;-77
2023/03/25 07:35:06;;;;;;;17.63;2.55;;;8.70;99.90;;;;;;5041279;28;20075;-77
2023/03/25 07:37:32;;;;;;;20.20;3.50;;;8.80;99.90;;;;;;5035439;28;20051;-76
2023/03/25 07:39:58;;;;;;;23.13;3.13;;;8.70;99.90;;;;;;5041582;28;20053;-77
2023/03/25 07:42:24;;;;;;;21.48;3.83;;;8.70;99.90;;;;;;5040887;28;20045;-77
2023/03/25 07:44:50;;;;;;;19.63;2.75;;;8.70;99.90;;;;;;5041336;28;20118;-77
2023/03/25 07:47:16;;;;;;;25.02;3.42;;;8.70;99.90;;;;;;5036350;28;20055;-79
2023/03/25 07:49:43;;;;;;;23.17;4.40;;;8.60;99.90;;;;;;5039954;28;20040;-78
2023/03/25 07:52:09;;;;;;;22.70;4.00;;;8.60;99.90;;;;;;5041572;28;20137;-77
2023/03/25 07:54:35;;;;;;;17.92;2.72;;;8.60;99.90;;;;;;5033263;28;20268;-78
2023/03/25 07:57:01;;;;;;;24.90;3.80;;;8.60;99.90;;;;;;5034455;28;20163;-77
2023/03/25 07:59:27;;;;;;;20.10;2.88;;;8.60;99.90;;;;;;5029730;28;20051;-81
2023/03/25 08:01:53;;;;;;;20.55;3.30;;;8.60;99.90;;;;;;5031446;28;20049;-77
2023/03/25 08:04:19;;;;;;;17.08;2.55;;;8.60;99.90;;;;;;5027131;28;20229;-78
2023/03/25 08:06:48;;;;;;;22.20;2.90;;;8.60;99.90;;;;;;5037322;28;20048;-79
2023/03/25 08:09:13;;;;;;;20.52;2.78;;;8.60;99.90;;;;;;5033620;28;20045;-75
2023/03/25 08:11:39;;;;;;;16.98;2.83;;;8.60;99.90;;;;;;5033006;28;20041;-77
2023/03/25 08:14:05;;;;;;;19.55;3.72;;;8.60;99.90;;;;;;5015560;28;20048;-78
2023/03/25 08:16:31;;;;;;;16.38;3.25;;;8.60;99.90;;;;;;5018755;28;20510;-77
2023/03/25 08:18:57;;;;;;;20.23;3.28;;;8.60;99.90;;;;;;5031971;28;20098;-77
2023/03/25 08:21:26;;;;;;;20.80;3.17;;;8.60;99.90;;;;;;5033747;28;20151;-77
2023/03/25 08:24:03;;;;;;;16.13;2.63;;;8.60;99.90;;;;;;5028833;28;20418;-79
2023/03/25 08:26:32;;;;;;;21.15;3.58;;;8.60;99.90;;;;;;5037132;28;20940;-76
2023/03/25 08:29:01;;;;;;;19.48;2.95;;;8.60;99.90;;;;;;5035612;28;20051;-76
2023/03/25 08:31:31;;;;;;;20.67;4.63;;;8.60;99.90;;;;;;5021085;28;20539;-77
2023/03/25 08:34:00;;;;;;;24.05;3.03;;;8.70;99.90;;;;;;5013488;28;20451;-77
2023/03/25 08:36:27;;;;;;;21.45;3.08;;;8.70;99.90;;;;;;5038712;28;20615;-76
2023/03/25 08:38:53;;;;;;;18.95;3.15;;;8.70;99.90;;;;;;5038721;28;20100;-76
2023/03/25 08:41:19;;;;;;;18.48;3.22;;;8.70;99.90;;;;;;5045890;28;20605;-78
2023/03/25 08:43:45;;;;;;;22.20;3.63;;;8.70;99.90;;;;;;5046971;28;20052;-77
2023/03/25 08:46:11;;;;;;;24.48;3.83;;;8.60;99.90;;;;;;5054846;28;20064;-77
2023/03/25 08:48:37;;;;;;;24.30;3.67;;;8.60;99.90;;;;;;5052599;28;20041;-77
2023/03/25 08:51:03;;;;;;;24.13;3.15;;;8.60;99.90;;;;;;5040316;28;20040;-77
2023/03/25 08:53:29;;;;;;;24.48;3.30;;;8.70;99.90;;;;;;5012576;28;20047;-77
2023/03/25 08:55:59;;;;;;;23.55;3.53;;;8.70;99.90;;;;;;5040211;28;20044;-78
2023/03/25 08:58:25;;;;;;;15.80;2.90;;;8.70;99.90;;;;;;5052719;28;20039;-77
2023/03/25 09:00:54;;;;;;;24.58;3.10;;;8.80;99.90;;;;;;5051690;28;20540;-77
2023/03/25 09:03:25;;;;;;;19.55;3.22;;;8.80;99.90;;;;;;5055188;28;20172;-77
2023/03/25 09:05:52;;;;;;;24.85;3.60;;;8.90;99.90;;;;;;5050072;28;20147;-77
2023/03/25 09:08:18;;;;;;;18.20;3.22;;;8.90;99.90;;;;;;5024947;28;20054;-77
2023/03/25 09:10:44;;;;;;;23.55;4.85;;;9.10;99.90;;;;;;5048232;28;20037;-77
2023/03/25 09:13:09;;;;;;;21.17;2.88;;;9.10;99.90;;;;;;5023812;28;20044;-76
2023/03/25 09:15:35;;;;;;;24.95;3.47;;;9.20;99.90;;;;;;5033703;28;20645;-77
2023/03/25 09:18:02;;;;;;;25.02;4.07;;;9.40;99.90;;;;;;5056002;28;20702;-77
2023/03/25 09:20:28;;;;;;;15.75;2.70;;;9.40;99.90;;;;;;5052173;28;20079;-78
2023/03/25 09:22:54;;;;;;;22.08;3.45;;;9.50;99.90;;;;;;5040160;28;20151;-77
2023/03/25 09:25:19;;;;;;;21.88;3.15;;;9.50;99.90;;;;;;5043689;28;20056;-78
2023/03/25 09:27:45;;;;;;;24.90;3.13;;;9.60;99.90;;;;;;5048498;28;20040;-78
2023/03/25 09:30:11;;;;;;;23.42;2.78;;;9.50;99.90;;;;;;5046411;28;20110;-77
2023/03/25 09:32:37;;;;;;;22.58;3.42;;;9.60;99.90;;;;;;5043806;28;20036;-78
2023/03/25 09:35:04;;;;;;;20.48;3.30;;;9.70;99.90;;;;;;5056548;28;20870;-76
2023/03/25 09:37:29;;;;;;;16.67;2.90;;;9.80;99.90;;;;;;5052935;28;20099;-76
2023/03/25 09:39:56;;;;;;;20.38;2.95;;;9.80;99.90;;;;;;5049499;28;20610;-77
2023/03/25 09:42:57;;;;;;;18.48;2.78;;;9.80;99.90;;;;;;5054051;28;20654;-76
2023/03/25 09:45:38;;;;;;;16.67;3.00;;;9.80;99.90;;;;;;5044330;28;20067;-77
2023/03/25 09:48:25;;;;;;;16.13;2.90;;;9.90;99.90;;;;;;5043389;28;20391;-77
2023/03/25 09:50:51;;;;;;;15.02;2.65;;;9.90;99.90;;;;;;5043041;28;20628;-79
2023/03/25 09:53:43;;;;;;;16.35;2.60;;;9.90;99.90;;;;;;5046024;28;20047;-76
2023/03/25 09:56:15;;;;;;;20.40;3.33;;;9.90;99.90;;;;;;5021808;28;20052;-77
2023/03/25 09:59:12;;;;;;;22.15;2.97;;;9.90;99.90;;;;;;5055475;28;20051;-76
2023/03/25 10:02:00;;;;;;;19.73;3.45;;;9.80;99.90;;;;;;5032908;28;20105;-79
2023/03/25 10:04:27;;;;;;;24.13;2.75;;;9.80;99.90;;;;;;5041861;28;20040;-79
2023/03/25 10:07:21;;;;;;;23.20;3.17;;;9.80;99.90;;;;;;5039510;28;20472;-78
2023/03/25 10:10:05;;;;;;;25.27;3.10;;;9.70;99.90;;;;;;5057685;28;20135;-78
2023/03/25 10:12:46;;;;;;;20.60;2.53;;;9.70;99.90;;;;;;5042114;28;20105;-78
2023/03/25 10:15:26;;;;;;;18.05;3.05;;;9.70;99.90;;;;;;5055007;28;20474;-77
2023/03/25 10:17:55;;;;;;;17.37;2.63;;;9.70;99.90;;;;;;5057902;28;20107;-77
2023/03/25 10:20:35;;;;;;;21.13;3.15;;;9.60;99.90;;;;;;5046391;28;21136;-78
2023/03/25 10:23:13;;;;;;;18.00;3.15;;;9.70;99.90;;;;;;5038101;28;20135;-76
2023/03/25 10:25:44;;;;;;;22.73;3.13;;;9.70;99.90;;;;;;5028627;28;20047;-77
2023/03/25 10:28:18;;;;;;;18.40;2.75;;;9.70;99.90;;;;;;5058656;28;20068;-78
2023/03/25 10:30:51;;;;;;;27.80;3.03;;;9.80;99.90;;;;;;5049341;28;20040;-77
2023/03/25 10:33:44;;;;;;;20.65;3.03;;;9.80;99.90;;;;;;5059549;28;20347;-78
2023/03/25 10:36:18;;;;;;;16.73;3.03;;;10.00;99.90;;;;;;5025871;28;20048;-78
2023/03/25 10:38:47;;;;;;;15.07;3.53;;;9.90;99.90;;;;;;5039196;28;20045;-76
2023/03/25 10:41:19;;;;;;;18.23;3.10;;;9.90;99.90;;;;;;5060627;28;20066;-76
2023/03/25 10:43:45;;;;;;;23.95;3.15;;;9.90;99.90;;;;;;5043347;28;20048;-77
2023/03/25 10:46:47;;;;;;;24.27;4.25;;;9.90;99.90;;;;;;5038547;28;20045;-76
2023/03/25 10:49:23;;;;;;;15.40;2.88;;;10.00;99.90;;;;;;5045701;28;20051;-76
2023/03/25 10:51:53;;;;;;;15.05;3.00;;;10.00;99.90;;;;;;5025001;28;20155;-77
2023/03/25 10:54:21;;;;;;;18.25;2.85;;;10.00;99.90;;;;;;5045793;28;20040;-76
2023/03/25 10:56:54;;;;;;;23.20;3.03;;;10.00;99.90;;;;;;5046628;28;20610;-80
2023/03/25 10:59:28;;;;;;;17.30;3.35;;;10.10;99.90;;;;;;5057215;28;20125;-78
2023/03/25 11:01:59;;;;;;;16.27;3.85;;;10.10;99.90;;;;;;5039976;28;20127;-78
2023/03/25 11:04:39;;;;;;;21.25;3.05;;;10.20;99.90;;;;;;5042819;28;20512;-78
2023/03/25 11:07:19;;;;;;;18.75;2.85;;;10.20;99.90;;;;;;5054160;28;20513;-79
2023/03/25 11:09:45;;;;;;;21.77;3.30;;;10.30;99.90;;;;;;5040766;28;20048;-78
2023/03/25 11:12:16;;;;;;;16.77;3.05;;;10.30;99.90;;;;;;5034249;28;20052;-77
2023/03/25 11:14:42;;;;;;;15.82;3.40;;;10.40;99.90;;;;;;5056766;28;20029;-79
2023/03/25 11:17:14;;;;;;;19.48;3.40;;;10.50;99.90;;;;;;5069115;28;20051;-79
2023/03/25 11:19:52;;;;;;;17.98;3.53;;;10.50;99.90;;;;;;5055887;28;20052;-80
2023/03/25 11:22:36;;;;;;;19.38;3.58;;;10.50;99.90;;;;;;5047704;28;20047;-79
2023/03/25 11:25:22;;;;;;;13.90;2.63;;;10.60;99.90;;;;;;5042423;28;20059;-78
2023/03/25 11:28:11;;;;;;;16.63;2.42;;;10.70;99.90;;;;;;5064319;28;20037;-78
2023/03/25 11:30:57;;;;;;;19.17;2.78;;;10.70;99.90;;;;;;5029117;28;20071;-79
2023/03/25 11:33:25;;;;;;;20.23;2.78;;;10.70;99.90;;;;;;5045078;28;20072;-78
2023/03/25 11:35:51;;;;;;;15.80;2.65;;;10.70;99.90;;;;;;5046936;28;20109;-79
2023/03/25 11:38:22;;;;;;;15.70;3.17;;;10.70;99.90;;;;;;5060578;28;20235;-79
2023/03/25 11:41:14;;;;;;;13.32;2.65;;;10.70;99.90;;;;;;5038094;28;20041;-79
2023/03/25 11:43:40;;;;;;;15.38;2.83;;;10.70;99.90;;;;;;5039329;28;20049;-79
2023/03/25 11:46:15;;;;;;;18.55;2.60;;;10.70;99.90;;;;;;5045620;28;20040;-79
2023/03/25 11:48:45;;;;;;;17.70;2.85;;;10.70;99.90;;;;;;5043851;28;20417;-78
2023/03/25 11:51:22;;;;;;;14.18;2.53;;;10.70;99.90;;;;;;5028156;28;20420;-77
2023/03/25 11:53:57;;;;;;;18.35;2.50;;;10.70;99.90;;;;;;5039620;28;20126;-76
2023/03/25 11:56:30;;;;;;;13.23;2.50;;;10.70;99.90;;;;;;5024983;28;20125;-78
2023/03/25 11:59:00;;;;;;;16.90;2.55;;;10.80;99.90;;;;;;5021828;28;20057;-78
2023/03/25 12:01:35;;;;;;;22.25;2.80;;;10.80;99.90;;;;;;5025814;28;20052;-80
2023/03/25 12:04:11;;;;;;;14.48;2.17;;;10.80;99.90;;;;;;5046818;28;20049;-80
2023/03/25 12:06:50;;;;;;;18.23;2.50;;;10.80;99.90;;;;;;5027355;28;20047;-81
2023/03/25 12:09:16;;;;;;;14.30;2.47;;;10.90;99.90;;;;;;5040278;28;20045;-78
2023/03/25 12:12:31;;;;;;;19.65;2.90;;;11.00;99.90;;;;;;5044062;28;20041;-78
2023/03/25 12:15:53;;;;;;;15.05;2.40;;;11.10;99.90;;;;;;5031453;28;20052;-78
2023/03/25 12:18:49;;;;;;;14.75;2.08;;;11.10;99.90;;;;;;4987951;28;20564;-80
2023/03/25 12:21:29;;;;;;;14.80;2.22;;;11.20;99.90;;;;;;4989447;28;20045;-78
2023/03/25 12:24:08;;;;;;;15.95;2.50;;;11.20;99.90;;;;;;5034485;28;20060;-78
2023/03/25 12:27:15;;;;;;;12.65;2.17;;;11.30;99.90;;;;;;5043204;28;20033;-72
2023/03/25 12:30:02;;;;;;;16.75;2.95;;;11.50;99.90;;;;;;5041311;28;20044;-74
2023/03/25 12:32:51;;;;;;;22.35;2.85;;;11.60;99.90;;;;;;5041280;28;20041;-72
2023/03/25 12:35:48;;;;;;;14.68;2.53;;;11.70;99.90;;;;;;5040860;28;20397;-72
2023/03/25 12:38:55;;;;;;;20.77;3.28;;;11.70;99.90;;;;;;5020492;28;20472;-72
2023/03/25 12:41:40;;;;;;;15.43;2.40;;;11.70;99.90;;;;;;5032328;28;20056;-73
2023/03/25 12:44:20;;;;;;;13.18;2.42;;;11.60;99.90;;;;;;5041936;28;20412;-73
2023/03/25 12:47:02;;;;;;;15.15;2.42;;;11.50;99.90;;;;;;5041570;28;20045;-73
2023/03/25 12:49:55;;;;;;;16.85;2.78;;;11.40;99.90;;;;;;5043251;28;20045;-74
2023/03/25 12:52:21;;;;;;;16.00;2.30;;;11.40;99.90;;;;;;5025229;28;20049;-75
2023/03/25 12:55:24;;;;;;;11.55;2.22;;;11.30;99.90;;;;;;5041150;28;20052;-72
2023/03/25 12:58:15;;;;;;;16.80;3.03;;;11.20;99.90;;;;;;5055974;28;20045;-73
2023/03/25 13:01:03;;;;;;;16.38;2.72;;;11.10;99.90;;;;;;5030380;28;20041;-73
2023/03/25 13:04:26;;;;;;;14.70;2.90;;;10.90;99.90;;;;;;5048606;28;20037;-77
2023/03/25 13:07:06;;;;;;;11.00;2.00;;;10.80;99.90;;;;;;4981497;28;20041;-76
2023/03/25 13:09:53;;;;;;;12.65;2.15;;;10.70;99.90;;;;;;4982831;28;20046;-76
2023/03/25 13:12:47;;;;;;;15.30;2.35;;;10.60;99.90;;;;;;5023552;28;20060;-78